createdAt,value
2017-04-06T00:00:10.863Z,0
2017-04-06T00:01:20.460Z,0
2017-04-06T00:02:30.734Z,0
2017-04-06T00:03:40.981Z,0
2017-04-06T00:04:50.891Z,0
2017-04-06T00:06:00.938Z,0
2017-04-06T00:07:10.843Z,0
2017-04-06T00:08:20.441Z,0
2017-04-06T00:09:30.340Z,0
2017-04-06T00:10:40.560Z,0
2017-04-06T00:11:50.612Z,0
2017-04-06T00:13:00.513Z,0
2017-04-06T00:14:10.419Z,0
2017-04-06T00:15:20.668Z,0
2017-04-06T00:16:30.261Z,0
2017-04-06T00:17:40.170Z,0
2017-04-06T00:18:50.069Z,0
2017-04-06T00:19:59.965Z,0
2017-04-06T00:21:09.892Z,0
2017-04-06T00:22:20.141Z,0
2017-04-06T00:23:30.194Z,0
2017-04-06T00:24:39.818Z,0
2017-04-06T00:25:49.420Z,0
2017-04-06T00:26:59.630Z,0
2017-04-06T00:28:09.245Z,0
2017-04-06T00:29:19.605Z,0
2017-04-06T00:30:29.505Z,0
2017-04-06T00:31:39.423Z,0
2017-04-06T00:32:49.321Z,0
2017-04-06T00:33:58.916Z,0
2017-04-06T00:35:08.801Z,0
2017-04-06T00:36:18.085Z,0
2017-04-06T00:37:27.985Z,0
2017-04-06T00:38:37.581Z,0
2017-04-06T00:39:47.792Z,0
2017-04-06T00:40:58.148Z,0
2017-04-06T00:42:08.052Z,0
2017-04-06T00:43:17.648Z,0
2017-04-06T00:44:27.558Z,0
2017-04-06T00:45:37.769Z,0
2017-04-06T00:46:48.080Z,0
2017-04-06T00:47:57.702Z,0
2017-04-06T00:49:07.908Z,0
2017-04-06T00:50:17.807Z,0
2017-04-06T00:51:27.096Z,0
2017-04-06T00:52:36.796Z,0
2017-04-06T00:53:46.385Z,0
2017-04-06T00:54:55.675Z,0
2017-04-06T00:56:05.882Z,0
2017-04-06T00:57:15.794Z,0
2017-04-06T00:58:25.498Z,0
2017-04-06T00:59:35.396Z,0
2017-04-06T01:00:45.300Z,0
2017-04-06T01:01:55.195Z,0
2017-04-06T01:03:05.085Z,0
2017-04-06T01:04:14.830Z,0
2017-04-06T01:05:25.054Z,0
2017-04-06T01:06:34.645Z,0
2017-04-06T01:07:44.572Z,0
2017-04-06T01:08:54.476Z,0
2017-04-06T01:10:04.826Z,0
2017-04-06T01:11:14.422Z,0
2017-04-06T01:12:24.623Z,0
2017-04-06T01:13:33.911Z,0
2017-04-06T01:14:43.505Z,0
2017-04-06T01:15:53.807Z,0
2017-04-06T01:17:03.102Z,0
2017-04-06T01:18:12.692Z,0
2017-04-06T01:19:22.313Z,0
2017-04-06T01:20:32.215Z,0
2017-04-06T01:21:42.169Z,0
2017-04-06T01:22:52.086Z,0
2017-04-06T01:24:01.985Z,0
2017-04-06T01:25:12.188Z,0
2017-04-06T01:26:22.093Z,0
2017-04-06T01:27:32.556Z,0
2017-04-06T01:28:42.449Z,0
2017-04-06T01:29:52.360Z,0
2017-04-06T01:31:02.563Z,0
2017-04-06T01:32:12.452Z,0
2017-04-06T01:33:22.603Z,0
2017-04-06T01:34:31.894Z,0
2017-04-06T01:35:41.492Z,0
2017-04-06T01:36:51.094Z,0
2017-04-06T01:38:00.993Z,0
2017-04-06T01:39:11.451Z,0
2017-04-06T01:40:21.046Z,0
2017-04-06T01:41:30.630Z,0
2017-04-06T01:42:40.535Z,0
2017-04-06T01:43:50.148Z,0
2017-04-06T01:45:01.458Z,0
2017-04-06T01:46:11.357Z,0
2017-04-06T01:47:20.974Z,0
2017-04-06T01:48:30.878Z,0
2017-04-06T01:49:40.469Z,0
2017-04-06T01:50:51.425Z,0
2017-04-06T01:52:01.014Z,0
2017-04-06T01:53:10.917Z,0
2017-04-06T01:54:20.835Z,0
2017-04-06T01:55:31.039Z,0
2017-04-06T01:56:40.776Z,0
2017-04-06T01:57:50.678Z,0
2017-04-06T01:59:00.589Z,0
2017-04-06T02:00:10.802Z,0
2017-04-06T02:01:21.009Z,0
2017-04-06T02:02:31.462Z,0
2017-04-06T02:03:41.353Z,0
2017-04-06T02:04:51.252Z,0
2017-04-06T02:06:01.457Z,0
2017-04-06T02:07:11.672Z,0
2017-04-06T02:08:21.834Z,0
2017-04-06T02:09:31.741Z,0
2017-04-06T02:10:41.645Z,0
2017-04-06T02:11:50.929Z,0
2017-04-06T02:13:01.146Z,0
2017-04-06T02:14:12.059Z,0
2017-04-06T02:15:22.268Z,0
2017-04-06T02:16:32.474Z,0
2017-04-06T02:17:42.065Z,0
2017-04-06T02:18:51.363Z,0
2017-04-06T02:20:01.365Z,0
2017-04-06T02:21:11.266Z,0
2017-04-06T02:22:21.165Z,0
2017-04-06T02:23:30.756Z,0
2017-04-06T02:24:40.366Z,0
2017-04-06T02:25:50.267Z,0
2017-04-06T02:27:00.169Z,0
2017-04-06T02:28:10.373Z,0
2017-04-06T02:29:20.277Z,0
2017-04-06T02:30:30.504Z,0
2017-04-06T02:31:40.178Z,0
2017-04-06T02:32:50.102Z,0
2017-04-06T02:34:00.309Z,0
2017-04-06T02:35:09.893Z,0
2017-04-06T02:36:19.809Z,0
2017-04-06T02:37:29.548Z,0
2017-04-06T02:38:39.146Z,0
2017-04-06T02:39:49.039Z,0
2017-04-06T02:40:58.952Z,0
2017-04-06T02:42:09.156Z,0
2017-04-06T02:43:19.536Z,0
2017-04-06T02:44:29.120Z,0
2017-04-06T02:45:38.731Z,0
2017-04-06T02:46:48.646Z,0
2017-04-06T02:47:58.258Z,0
2017-04-06T02:49:08.250Z,0
2017-04-06T02:50:18.147Z,0
2017-04-06T02:51:28.045Z,0
2017-04-06T02:52:37.942Z,0
2017-04-06T02:53:47.841Z,0
2017-04-06T02:54:58.530Z,0
2017-04-06T02:56:08.748Z,0
2017-04-06T02:57:18.039Z,0
2017-04-06T02:58:27.943Z,0
2017-04-06T02:59:37.863Z,0
2017-04-06T03:00:48.226Z,0
2017-04-06T03:01:58.119Z,0
2017-04-06T03:03:08.014Z,0
2017-04-06T03:04:17.901Z,0
2017-04-06T03:05:27.818Z,0
2017-04-06T03:06:38.213Z,0
2017-04-06T03:07:48.112Z,0
2017-04-06T03:08:57.403Z,0
2017-04-06T03:10:07.006Z,0
2017-04-06T03:11:16.904Z,0
2017-04-06T03:12:27.253Z,0
2017-04-06T03:13:37.159Z,0
2017-04-06T03:14:47.062Z,0
2017-04-06T03:15:56.963Z,0
2017-04-06T03:17:07.171Z,0
2017-04-06T03:18:17.731Z,0
2017-04-06T03:19:27.631Z,0
2017-04-06T03:20:37.227Z,0
2017-04-06T03:21:47.139Z,0
2017-04-06T03:22:57.334Z,0
2017-04-06T03:24:07.697Z,0
2017-04-06T03:25:17.287Z,0
2017-04-06T03:26:27.496Z,0
2017-04-06T03:27:36.789Z,0
2017-04-06T03:28:46.692Z,0
2017-04-06T03:29:56.598Z,0
2017-04-06T03:31:06.498Z,0
2017-04-06T03:32:16.408Z,0
2017-04-06T03:33:26.333Z,0
2017-04-06T03:34:36.228Z,0
2017-04-06T03:35:46.072Z,0
2017-04-06T03:36:55.675Z,0
2017-04-06T03:38:05.578Z,0
2017-04-06T03:39:15.475Z,0
2017-04-06T03:40:25.666Z,0
2017-04-06T03:41:36.165Z,0
2017-04-06T03:42:46.056Z,0
2017-04-06T03:43:55.650Z,0
2017-04-06T03:45:05.545Z,0
2017-04-06T03:46:15.141Z,0
2017-04-06T03:47:25.665Z,0
2017-04-06T03:48:35.873Z,0
2017-04-06T03:49:46.069Z,0
2017-04-06T03:50:55.984Z,0
2017-04-06T03:52:06.264Z,0
2017-04-06T03:53:15.657Z,0
2017-04-06T03:54:25.875Z,0
2017-04-06T03:55:35.788Z,0
2017-04-06T03:56:45.687Z,0
2017-04-06T03:57:55.274Z,0
2017-04-06T03:59:04.970Z,0
2017-04-06T04:00:14.582Z,0
2017-04-06T04:01:24.488Z,0
2017-04-06T04:02:34.385Z,0
2017-04-06T04:03:44.278Z,0
2017-04-06T04:04:53.967Z,0
2017-04-06T04:06:03.864Z,0
2017-04-06T04:07:13.462Z,0
2017-04-06T04:08:23.379Z,0
2017-04-06T04:09:33.611Z,0
2017-04-06T04:10:44.870Z,0
2017-04-06T04:11:55.089Z,0
2017-04-06T04:13:05.303Z,0
2017-04-06T04:14:15.566Z,0
2017-04-06T04:15:25.165Z,0
2017-04-06T04:16:35.810Z,0
2017-04-06T04:17:45.391Z,0
2017-04-06T04:18:54.997Z,0
2017-04-06T04:20:04.591Z,0
2017-04-06T04:21:14.824Z,0
2017-04-06T04:22:26.076Z,0
2017-04-06T04:23:35.987Z,0
2017-04-06T04:24:45.885Z,0
2017-04-06T04:25:55.502Z,0
2017-04-06T04:27:05.113Z,0
2017-04-06T04:28:15.420Z,0
2017-04-06T04:29:25.621Z,0
2017-04-06T04:30:35.210Z,0
2017-04-06T04:31:45.418Z,0
2017-04-06T04:32:55.000Z,0
2017-04-06T04:34:05.354Z,0
2017-04-06T04:35:14.952Z,0
2017-04-06T04:36:24.254Z,0
2017-04-06T04:37:34.152Z,4
2017-04-06T04:38:43.747Z,0
2017-04-06T04:39:53.440Z,4
2017-04-06T04:41:03.339Z,4
2017-04-06T04:42:13.233Z,4
2017-04-06T04:43:23.125Z,8
2017-04-06T04:44:33.061Z,8
2017-04-06T04:45:42.955Z,4
2017-04-06T04:46:52.864Z,8
2017-04-06T04:48:02.488Z,8
2017-04-06T04:49:12.464Z,4
2017-04-06T04:50:22.060Z,4
2017-04-06T04:51:32.680Z,4
2017-04-06T04:52:42.616Z,4
2017-04-06T04:53:52.836Z,8
2017-04-06T04:55:02.755Z,8
2017-04-06T04:56:12.353Z,8
2017-04-06T04:57:22.940Z,8
2017-04-06T04:58:32.847Z,8
2017-04-06T04:59:42.149Z,8
2017-04-06T05:00:52.050Z,12
2017-04-06T05:02:02.295Z,16
2017-04-06T05:03:12.210Z,24
2017-04-06T05:04:21.811Z,40
2017-04-06T05:05:32.037Z,64
2017-04-06T05:06:41.987Z,96
2017-04-06T05:07:52.275Z,112
2017-04-06T05:09:02.746Z,108
2017-04-06T05:10:12.663Z,132
2017-04-06T05:11:22.875Z,144
2017-04-06T05:12:32.835Z,124
2017-04-06T05:13:42.152Z,104
2017-04-06T05:14:52.773Z,100
2017-04-06T05:16:02.391Z,92
2017-04-06T05:17:12.618Z,100
2017-04-06T05:18:22.224Z,124
2017-04-06T05:19:32.138Z,144
2017-04-06T05:20:41.727Z,144
2017-04-06T05:21:51.344Z,144
2017-04-06T05:23:00.711Z,152
2017-04-06T05:24:10.040Z,148
2017-04-06T05:25:19.976Z,148
2017-04-06T05:26:30.948Z,144
2017-04-06T05:27:41.167Z,140
2017-04-06T05:28:50.758Z,136
2017-04-06T05:30:00.370Z,144
2017-04-06T05:31:09.963Z,136
2017-04-06T05:32:20.197Z,156
2017-04-06T05:33:30.420Z,148
2017-04-06T05:34:40.671Z,148
2017-04-06T05:35:50.890Z,156
2017-04-06T05:37:00.501Z,164
2017-04-06T05:38:10.970Z,216
2017-04-06T05:39:21.177Z,268
2017-04-06T05:40:31.409Z,252
2017-04-06T05:41:41.635Z,240
2017-04-06T05:42:51.856Z,244
2017-04-06T05:44:01.252Z,244
2017-04-06T05:45:11.157Z,236
2017-04-06T05:46:21.073Z,268
2017-04-06T05:47:30.982Z,288
2017-04-06T05:48:40.579Z,296
2017-04-06T05:49:51.025Z,300
2017-04-06T05:51:00.645Z,324
2017-04-06T05:52:10.561Z,348
2017-04-06T05:53:20.162Z,364
2017-04-06T05:54:30.052Z,360
2017-04-06T05:55:40.283Z,344
2017-04-06T05:56:50.497Z,332
2017-04-06T05:58:00.425Z,292
2017-04-06T05:59:10.632Z,260
2017-04-06T06:00:21.279Z,228
2017-04-06T06:01:31.090Z,200
2017-04-06T06:02:41.315Z,160
2017-04-06T06:03:50.739Z,188
2017-04-06T06:05:00.338Z,152
2017-04-06T06:06:10.548Z,160
2017-04-06T06:07:21.919Z,204
2017-04-06T06:08:31.527Z,232
2017-04-06T06:09:41.741Z,320
2017-04-06T06:10:51.357Z,348
2017-04-06T06:12:01.294Z,556
2017-04-06T06:13:11.370Z,696
2017-04-06T06:14:20.985Z,772
2017-04-06T06:15:30.618Z,872
2017-04-06T06:16:40.254Z,1164
2017-04-06T06:17:50.213Z,1788
2017-04-06T06:18:59.988Z,1852
2017-04-06T06:20:09.913Z,1768
2017-04-06T06:21:19.850Z,1520
2017-04-06T06:22:29.486Z,1108
2017-04-06T06:23:39.092Z,1056
2017-04-06T06:24:49.149Z,1128
2017-04-06T06:25:59.046Z,1068
2017-04-06T06:27:08.954Z,1580
2017-04-06T06:28:19.159Z,1432
2017-04-06T06:29:28.444Z,1712
2017-04-06T06:30:38.640Z,1944
2017-04-06T06:31:48.884Z,1944
2017-04-06T06:32:58.501Z,1748
2017-04-06T06:34:08.725Z,1620
2017-04-06T06:35:18.341Z,1712
2017-04-06T06:36:28.401Z,1568
2017-04-06T06:37:38.321Z,1504
2017-04-06T06:38:47.926Z,1508
2017-04-06T06:39:57.827Z,1640
2017-04-06T06:41:07.134Z,1888
2017-04-06T06:42:17.361Z,2068
2017-04-06T06:43:27.288Z,2352
2017-04-06T06:44:37.226Z,2292
2017-04-06T06:45:47.139Z,2764
2017-04-06T06:46:56.441Z,2824
2017-04-06T06:48:06.392Z,2620
2017-04-06T06:49:16.303Z,1852
2017-04-06T06:50:25.974Z,1996
2017-04-06T06:51:35.960Z,2520
2017-04-06T06:52:46.258Z,2568
2017-04-06T06:53:55.631Z,2508
2017-04-06T06:55:05.559Z,2672
2017-04-06T06:56:14.553Z,2084
2017-04-06T06:57:24.488Z,2372
2017-04-06T06:58:34.119Z,2724
2017-04-06T06:59:44.330Z,2612
2017-04-06T07:00:53.936Z,2580
2017-04-06T07:02:03.855Z,2728
2017-04-06T07:03:14.061Z,3168
2017-04-06T07:04:23.984Z,3756
2017-04-06T07:05:33.899Z,3632
2017-04-06T07:06:43.807Z,2888
2017-04-06T07:07:53.752Z,2160
2017-04-06T07:09:03.666Z,2640
2017-04-06T07:10:13.577Z,3160
2017-04-06T07:11:23.749Z,3780
2017-04-06T07:12:33.664Z,3916
2017-04-06T07:13:43.578Z,4152
2017-04-06T07:14:53.800Z,4508
2017-04-06T07:16:03.111Z,4720
2017-04-06T07:17:13.073Z,4208
2017-04-06T07:18:22.998Z,3500
2017-04-06T07:19:32.617Z,3796
2017-04-06T07:20:42.842Z,4228
2017-04-06T07:21:53.053Z,4676
2017-04-06T07:23:03.838Z,4908
2017-04-06T07:24:14.056Z,4096
2017-04-06T07:25:23.964Z,4584
2017-04-06T07:26:34.191Z,5828
2017-04-06T07:27:44.428Z,5440
2017-04-06T07:28:54.141Z,2904
2017-04-06T07:30:03.471Z,2936
2017-04-06T07:31:13.081Z,1636
2017-04-06T07:32:23.042Z,1664
2017-04-06T07:33:32.652Z,1932
2017-04-06T07:34:42.885Z,1016
2017-04-06T07:35:52.808Z,1100
2017-04-06T07:37:03.066Z,2240
2017-04-06T07:38:13.297Z,3192
2017-04-06T07:39:23.509Z,2960
2017-04-06T07:40:33.634Z,2944
2017-04-06T07:41:43.261Z,3096
2017-04-06T07:42:53.471Z,3660
2017-04-06T07:44:02.791Z,4656
2017-04-06T07:45:12.717Z,4908
2017-04-06T07:46:22.776Z,4968
2017-04-06T07:47:32.381Z,4356
2017-04-06T07:48:42.603Z,4420
2017-04-06T07:49:53.204Z,3672
2017-04-06T07:51:02.511Z,4236
2017-04-06T07:52:12.270Z,4312
2017-04-06T07:53:21.886Z,3692
2017-04-06T07:54:31.791Z,2872
2017-04-06T07:55:41.703Z,2800
2017-04-06T07:56:51.630Z,3684
2017-04-06T07:58:02.269Z,2320
2017-04-06T07:59:12.506Z,2192
2017-04-06T08:00:22.408Z,1340
2017-04-06T08:01:32.346Z,1168
2017-04-06T08:02:41.943Z,880
2017-04-06T08:03:51.399Z,796
2017-04-06T08:05:01.315Z,728
2017-04-06T08:06:11.234Z,664
2017-04-06T08:07:21.453Z,628
2017-04-06T08:08:31.371Z,612
2017-04-06T08:09:41.615Z,668
2017-04-06T08:10:51.233Z,668
2017-04-06T08:12:00.847Z,732
2017-04-06T08:13:10.762Z,836
2017-04-06T08:14:20.371Z,900
2017-04-06T08:15:29.968Z,904
2017-04-06T08:16:40.247Z,972
2017-04-06T08:17:49.845Z,964
2017-04-06T08:18:59.762Z,1216
2017-04-06T08:20:09.375Z,1480
2017-04-06T08:21:19.632Z,1644
2017-04-06T08:22:28.931Z,1744
2017-04-06T08:23:38.846Z,2156
2017-04-06T08:24:48.757Z,2876
2017-04-06T08:25:58.668Z,3304
2017-04-06T08:27:08.995Z,3568
2017-04-06T08:28:18.607Z,4448
2017-04-06T08:29:28.527Z,4900
2017-04-06T08:30:38.836Z,4652
2017-04-06T08:31:48.141Z,3700
2017-04-06T08:32:58.515Z,3156
2017-04-06T08:34:08.963Z,3056
2017-04-06T08:35:18.591Z,2904
2017-04-06T08:36:28.506Z,2492
2017-04-06T08:37:37.897Z,2364
2017-04-06T08:38:49.052Z,2248
2017-04-06T08:39:59.096Z,2052
2017-04-06T08:41:09.093Z,1856
2017-04-06T08:42:18.760Z,1476
2017-04-06T08:43:28.056Z,1432
2017-04-06T08:44:38.440Z,1184
2017-04-06T08:45:48.683Z,964
2017-04-06T08:46:58.599Z,936
2017-04-06T08:48:08.226Z,836
2017-04-06T08:49:17.842Z,740
2017-04-06T08:50:28.831Z,656
2017-04-06T08:51:38.729Z,652
2017-04-06T08:52:48.353Z,696
2017-04-06T08:53:57.956Z,716
2017-04-06T08:55:07.891Z,692
2017-04-06T08:56:17.742Z,700
2017-04-06T08:57:27.663Z,864
2017-04-06T08:58:37.281Z,1192
2017-04-06T08:59:47.500Z,1496
2017-04-06T09:00:57.710Z,1816
2017-04-06T09:02:08.111Z,1976
2017-04-06T09:03:18.107Z,1880
2017-04-06T09:04:27.726Z,1852
2017-04-06T09:05:37.655Z,2076
2017-04-06T09:06:47.249Z,1864
2017-04-06T09:07:57.408Z,1868
2017-04-06T09:09:06.410Z,2048
2017-04-06T09:10:16.135Z,2084
2017-04-06T09:11:26.044Z,1936
2017-04-06T09:12:35.943Z,1712
2017-04-06T09:13:45.846Z,1644
2017-04-06T09:14:55.454Z,1684
2017-04-06T09:16:05.369Z,1776
2017-04-06T09:17:15.098Z,1952
2017-04-06T09:18:24.702Z,2076
2017-04-06T09:19:34.766Z,2112
2017-04-06T09:20:44.674Z,2112
2017-04-06T09:21:54.610Z,2068
2017-04-06T09:23:03.297Z,2188
2017-04-06T09:24:13.551Z,2108
2017-04-06T09:25:23.615Z,2120
2017-04-06T09:26:33.302Z,2156
2017-04-06T09:27:43.514Z,2240
2017-04-06T09:28:53.480Z,2296
2017-04-06T09:30:03.455Z,2412
2017-04-06T09:31:13.712Z,2228
2017-04-06T09:32:23.372Z,2268
2017-04-06T09:33:33.318Z,2156
2017-04-06T09:34:42.930Z,2116
2017-04-06T09:35:53.178Z,2040
2017-04-06T09:37:03.138Z,2180
2017-04-06T09:38:12.758Z,2284
2017-04-06T09:39:22.820Z,2304
2017-04-06T09:40:32.779Z,2384
2017-04-06T09:41:42.685Z,2524
2017-04-06T09:42:52.856Z,2680
2017-04-06T09:44:02.768Z,2800
2017-04-06T09:45:12.490Z,3072
2017-04-06T09:46:22.133Z,3252
2017-04-06T09:47:32.081Z,3528
2017-04-06T09:48:42.534Z,3748
2017-04-06T09:49:52.548Z,4100
2017-04-06T09:51:02.365Z,3868
2017-04-06T09:52:12.598Z,3680
2017-04-06T09:53:22.228Z,3536
2017-04-06T09:54:32.321Z,3424
2017-04-06T09:55:42.274Z,3376
2017-04-06T09:56:52.015Z,3576
2017-04-06T09:58:02.273Z,3704
2017-04-06T09:59:12.323Z,3604
2017-04-06T10:00:22.533Z,3388
2017-04-06T10:01:31.834Z,3556
2017-04-06T10:02:41.589Z,3676
2017-04-06T10:03:51.445Z,3608
2017-04-06T10:05:01.453Z,3088
2017-04-06T10:06:11.626Z,2732
2017-04-06T10:07:22.010Z,2176
2017-04-06T10:08:31.973Z,2260
2017-04-06T10:09:41.441Z,2040
2017-04-06T10:10:51.177Z,1892
2017-04-06T10:12:01.465Z,1844
2017-04-06T10:13:11.077Z,1816
2017-04-06T10:14:21.318Z,1804
2017-04-06T10:15:31.054Z,1900
2017-04-06T10:16:41.021Z,2040
2017-04-06T10:17:50.923Z,1972
2017-04-06T10:19:00.842Z,1836
2017-04-06T10:20:10.445Z,1840
2017-04-06T10:21:20.121Z,2496
2017-04-06T10:22:30.373Z,2800
2017-04-06T10:23:40.155Z,2720
2017-04-06T10:24:50.091Z,3136
2017-04-06T10:26:00.331Z,3148
2017-04-06T10:27:10.279Z,3228
2017-04-06T10:28:20.213Z,3304
2017-04-06T10:29:30.183Z,3284
2017-04-06T10:30:40.126Z,3408
2017-04-06T10:31:50.041Z,3612
2017-04-06T10:32:59.931Z,3756
2017-04-06T10:34:10.234Z,3436
2017-04-06T10:35:21.374Z,3432
2017-04-06T10:36:30.983Z,3288
2017-04-06T10:37:40.611Z,3136
2017-04-06T10:38:50.829Z,2844
2017-04-06T10:40:00.734Z,2552
2017-04-06T10:41:10.900Z,2252
2017-04-06T10:42:20.817Z,2096
2017-04-06T10:43:30.427Z,1748
2017-04-06T10:44:40.352Z,1640
2017-04-06T10:45:50.269Z,2016
2017-04-06T10:47:00.433Z,2136
2017-04-06T10:48:10.345Z,2272
2017-04-06T10:49:20.257Z,2468
2017-04-06T10:50:30.477Z,2328
2017-04-06T10:51:40.730Z,1924
2017-04-06T10:52:50.497Z,2132
2017-04-06T10:53:59.819Z,2180
2017-04-06T10:55:09.427Z,2168
2017-04-06T10:56:19.045Z,1708
2017-04-06T10:57:29.250Z,1700
2017-04-06T10:58:39.012Z,2028
2017-04-06T10:59:48.026Z,2180
2017-04-06T11:00:57.926Z,2136
2017-04-06T11:02:08.177Z,2020
2017-04-06T11:03:18.099Z,2052
2017-04-06T11:04:28.672Z,2296
2017-04-06T11:05:38.277Z,2736
2017-04-06T11:06:48.198Z,2872
2017-04-06T11:07:58.421Z,2984
2017-04-06T11:09:08.338Z,2740
2017-04-06T11:10:18.503Z,2496
2017-04-06T11:11:28.408Z,2688
2017-04-06T11:12:38.997Z,2776
2017-04-06T11:13:48.610Z,2816
2017-04-06T11:14:58.834Z,3028
2017-04-06T11:16:09.208Z,3296
2017-04-06T11:17:19.124Z,3420
2017-04-06T11:18:28.769Z,3348
2017-04-06T11:19:38.363Z,3056
2017-04-06T11:20:48.289Z,2968
2017-04-06T11:21:58.543Z,3132
2017-04-06T11:23:08.762Z,3172
2017-04-06T11:24:18.678Z,3240
2017-04-06T11:25:28.582Z,2964
2017-04-06T11:26:38.536Z,3252
2017-04-06T11:27:48.595Z,3432
2017-04-06T11:28:58.503Z,3240
2017-04-06T11:30:08.099Z,2896
2017-04-06T11:31:17.696Z,2680
2017-04-06T11:32:27.613Z,2516
2017-04-06T11:33:38.139Z,2608
2017-04-06T11:34:48.077Z,2700
2017-04-06T11:35:57.986Z,2636
2017-04-06T11:37:07.613Z,3092
2017-04-06T11:38:17.847Z,3200
2017-04-06T11:39:28.080Z,3252
2017-04-06T11:41:49.142Z,2772
2017-04-06T11:42:59.087Z,2876
2017-04-06T11:44:09.311Z,3004
2017-04-06T11:45:19.220Z,2820
2017-04-06T11:46:28.822Z,2628
2017-04-06T11:47:38.441Z,2472
2017-04-06T11:48:48.358Z,2752
2017-04-06T11:49:58.572Z,2812
2017-04-06T11:51:08.443Z,2812
2017-04-06T11:52:18.351Z,2544
2017-04-06T11:53:27.639Z,2360
2017-04-06T11:54:37.891Z,2292
2017-04-06T11:55:48.139Z,2776
2017-04-06T11:56:58.660Z,3132
2017-04-06T11:58:08.614Z,3160
2017-04-06T11:59:18.555Z,2908
2017-04-06T12:00:28.519Z,2564
2017-04-06T12:01:38.014Z,2480
2017-04-06T12:02:47.943Z,2584
2017-04-06T12:03:57.897Z,2676
2017-04-06T12:05:07.587Z,2724
2017-04-06T12:06:17.237Z,2884
2017-04-06T12:07:27.470Z,2736
2017-04-06T12:08:38.157Z,2468
2017-04-06T12:09:48.451Z,2348
2017-04-06T12:10:58.403Z,2200
2017-04-06T12:12:08.319Z,2076
2017-04-06T12:13:18.243Z,2104
2017-04-06T12:14:28.593Z,2096
2017-04-06T12:15:38.518Z,1844
2017-04-06T12:16:48.726Z,1736
2017-04-06T12:17:58.941Z,1540
2017-04-06T12:19:09.172Z,1468
2017-04-06T12:20:19.443Z,1444
2017-04-06T12:21:29.040Z,1440
2017-04-06T12:22:39.268Z,1596
2017-04-06T12:23:49.177Z,1768
2017-04-06T12:24:59.397Z,2072
2017-04-06T12:26:09.671Z,2092
2017-04-06T12:27:19.607Z,1872
2017-04-06T12:28:29.209Z,2240
2017-04-06T12:29:38.511Z,2500
2017-04-06T12:30:48.733Z,2848
2017-04-06T12:31:58.509Z,2856
2017-04-06T12:33:08.764Z,2844
2017-04-06T12:34:18.697Z,2568
2017-04-06T12:35:28.628Z,2356
2017-04-06T12:36:38.566Z,2172
2017-04-06T12:37:48.893Z,2240
2017-04-06T12:38:58.795Z,2260
2017-04-06T12:40:09.030Z,2116
2017-04-06T12:41:19.292Z,1960
2017-04-06T12:42:29.517Z,1996
2017-04-06T12:43:39.530Z,2016
2017-04-06T12:44:49.475Z,2196
2017-04-06T12:45:59.413Z,2296
2017-04-06T12:47:09.659Z,2388
2017-04-06T12:48:19.304Z,2212
2017-04-06T12:49:29.938Z,1900
2017-04-06T12:50:39.858Z,1572
2017-04-06T12:51:49.467Z,1308
2017-04-06T12:52:59.383Z,1360
2017-04-06T12:54:09.604Z,1148
2017-04-06T12:55:19.959Z,1128
2017-04-06T12:56:29.871Z,1240
2017-04-06T12:57:39.483Z,1584
2017-04-06T12:58:49.389Z,1908
2017-04-06T12:59:59.322Z,2364
2017-04-06T13:01:09.622Z,2744
2017-04-06T13:02:19.545Z,2896
2017-04-06T13:03:29.465Z,2396
2017-04-06T13:04:39.396Z,1992
2017-04-06T13:05:48.701Z,1740
2017-04-06T13:06:58.411Z,1676
2017-04-06T13:08:08.047Z,1652
2017-04-06T13:09:17.961Z,1624
2017-04-06T13:10:27.894Z,1656
2017-04-06T13:11:37.499Z,1744
2017-04-06T13:12:47.099Z,1868
2017-04-06T13:13:57.325Z,1904
2017-04-06T13:15:07.551Z,2060
2017-04-06T13:16:17.465Z,2196
2017-04-06T13:17:27.385Z,2292
2017-04-06T13:18:36.980Z,2372
2017-04-06T13:19:47.024Z,2344
2017-04-06T13:20:57.402Z,2248
2017-04-06T13:22:07.718Z,2276
2017-04-06T13:23:17.710Z,2284
2017-04-06T13:24:27.745Z,2296
2017-04-06T13:25:36.732Z,2252
2017-04-06T13:26:46.353Z,2120
2017-04-06T13:27:56.270Z,1748
2017-04-06T13:29:06.197Z,1452
2017-04-06T13:30:16.503Z,1700
2017-04-06T13:31:26.418Z,1880
2017-04-06T13:32:36.685Z,1872
2017-04-06T13:33:46.696Z,2036
2017-04-06T13:34:56.613Z,2268
2017-04-06T13:36:06.979Z,2360
2017-04-06T13:37:16.922Z,2156
2017-04-06T13:38:26.843Z,1900
2017-04-06T13:39:36.536Z,1616
2017-04-06T13:40:46.490Z,1528
2017-04-06T13:41:56.165Z,1420
2017-04-06T13:43:06.387Z,1512
2017-04-06T13:44:16.305Z,1368
2017-04-06T13:45:25.921Z,1272
2017-04-06T13:46:35.834Z,1312
2017-04-06T13:47:46.341Z,1540
2017-04-06T13:48:55.985Z,1696
2017-04-06T13:50:06.242Z,1664
2017-04-06T13:51:16.289Z,1480
2017-04-06T13:52:26.549Z,1288
2017-04-06T13:53:36.626Z,1172
2017-04-06T13:54:46.921Z,1216
2017-04-06T13:55:56.661Z,1296
2017-04-06T13:57:06.471Z,1360
2017-04-06T13:58:16.136Z,1424
2017-04-06T13:59:26.333Z,1340
2017-04-06T14:00:36.107Z,1304
2017-04-06T14:01:45.744Z,1348
2017-04-06T14:02:55.479Z,1508
2017-04-06T14:04:05.151Z,1676
2017-04-06T14:05:15.216Z,1596
2017-04-06T14:06:24.536Z,1556
2017-04-06T14:07:34.140Z,1688
2017-04-06T14:08:44.377Z,1792
2017-04-06T14:09:54.648Z,1844
2017-04-06T14:11:05.184Z,1748
2017-04-06T14:12:15.116Z,1564
2017-04-06T14:13:25.350Z,1536
2017-04-06T14:14:34.733Z,1628
2017-04-06T14:15:44.560Z,1968
2017-04-06T14:16:55.846Z,2052
2017-04-06T14:18:05.460Z,1852
2017-04-06T14:19:15.680Z,1844
2017-04-06T14:20:25.646Z,1956
2017-04-06T14:21:35.878Z,1832
2017-04-06T14:22:45.882Z,1588
2017-04-06T14:23:55.656Z,1468
2017-04-06T14:25:05.696Z,1396
2017-04-06T14:26:15.346Z,1224
2017-04-06T14:27:24.633Z,1316
2017-04-06T14:28:33.866Z,1244
2017-04-06T14:29:43.462Z,1152
2017-04-06T14:30:53.377Z,1204
2017-04-06T14:32:03.004Z,1372
2017-04-06T14:33:12.604Z,1524
2017-04-06T14:34:22.252Z,1724
2017-04-06T14:35:32.179Z,1612
2017-04-06T14:36:42.091Z,1400
2017-04-06T14:37:52.006Z,1196
2017-04-06T14:39:01.920Z,1168
2017-04-06T14:40:11.785Z,1296
2017-04-06T14:41:21.718Z,1452
2017-04-06T14:42:31.646Z,1656
2017-04-06T14:43:41.555Z,1792
2017-04-06T14:44:51.158Z,1872
2017-04-06T14:46:01.367Z,1852
2017-04-06T14:47:10.978Z,1632
2017-04-06T14:48:20.579Z,1340
2017-04-06T14:49:30.200Z,1156
2017-04-06T14:50:40.109Z,956
2017-04-06T14:51:50.264Z,924
2017-04-06T14:53:00.517Z,880
2017-04-06T14:54:10.430Z,844
2017-04-06T14:55:20.386Z,836
2017-04-06T14:56:30.012Z,848
2017-04-06T14:57:40.208Z,872
2017-04-06T14:58:50.430Z,908
2017-04-06T14:59:59.428Z,1048
2017-04-06T15:01:08.731Z,1180
2017-04-06T15:02:18.642Z,1152
2017-04-06T15:03:29.003Z,1160
2017-04-06T15:04:38.920Z,1172
2017-04-06T15:05:48.520Z,1280
2017-04-06T15:06:58.142Z,1516
2017-04-06T15:08:08.356Z,1336
2017-04-06T15:09:18.622Z,1336
2017-04-06T15:10:28.548Z,1312
2017-04-06T15:11:38.460Z,1132
2017-04-06T15:12:48.694Z,908
2017-04-06T15:13:58.934Z,776
2017-04-06T15:15:08.873Z,820
2017-04-06T15:16:19.095Z,860
2017-04-06T15:17:29.003Z,976
2017-04-06T15:18:38.613Z,1112
2017-04-06T15:19:49.220Z,1216
2017-04-06T15:20:59.232Z,1292
2017-04-06T15:22:08.846Z,1340
2017-04-06T15:23:18.764Z,1364
2017-04-06T15:24:28.398Z,1292
2017-04-06T15:25:38.302Z,1192
2017-04-06T15:26:47.868Z,1112
2017-04-06T15:27:58.103Z,1104
2017-04-06T15:29:08.371Z,1084
2017-04-06T15:30:18.294Z,1044
2017-04-06T15:31:28.220Z,920
2017-04-06T15:32:38.518Z,808
2017-04-06T15:33:48.147Z,788
2017-04-06T15:34:57.757Z,780
2017-04-06T15:36:07.982Z,776
2017-04-06T15:37:17.604Z,728
2017-04-06T15:38:27.760Z,728
2017-04-06T15:39:37.378Z,712
2017-04-06T15:40:47.292Z,724
2017-04-06T15:41:57.218Z,764
2017-04-06T15:43:07.231Z,776
2017-04-06T15:44:17.766Z,784
2017-04-06T15:45:27.372Z,796
2017-04-06T15:46:37.492Z,824
2017-04-06T15:47:47.722Z,860
2017-04-06T15:48:57.342Z,920
2017-04-06T15:50:07.259Z,924
2017-04-06T15:51:17.173Z,904
2017-04-06T15:52:27.396Z,872
2017-04-06T15:53:36.701Z,832
2017-04-06T15:54:45.996Z,812
2017-04-06T15:55:56.050Z,784
2017-04-06T15:57:06.504Z,876
2017-04-06T15:58:16.415Z,920
2017-04-06T15:59:26.325Z,936
2017-04-06T16:00:36.231Z,880
2017-04-06T16:01:46.172Z,880
2017-04-06T16:02:55.778Z,884
2017-04-06T16:04:05.700Z,912
2017-04-06T16:05:15.323Z,924
2017-04-06T16:06:24.939Z,884
2017-04-06T16:07:34.776Z,816